createdAt,value
2017-10-03T00:02:25.209Z,66.17
2017-10-03T00:04:53.021Z,66.21
2017-10-03T00:07:20.828Z,65.85
2017-10-03T00:09:48.541Z,65.58
2017-10-03T00:12:16.730Z,65.78
2017-10-03T00:14:44.473Z,66.56
2017-10-03T00:17:12.079Z,66.72
2017-10-03T00:19:39.841Z,66.26
2017-10-03T00:22:07.392Z,66.31
2017-10-03T00:24:34.981Z,66.38
2017-10-03T00:27:02.533Z,66.87
2017-10-03T00:29:30.487Z,66.58
2017-10-03T00:32:00.121Z,66.31
2017-10-03T00:34:27.696Z,66.54
2017-10-03T00:36:56.003Z,66.40
2017-10-03T00:39:23.665Z,66.35
2017-10-03T00:41:51.242Z,66.46
2017-10-03T00:44:18.780Z,66.62
2017-10-03T00:46:46.402Z,66.71
2017-10-03T00:49:14.762Z,66.73
2017-10-03T00:51:43.617Z,66.59
2017-10-03T00:54:11.239Z,66.32
2017-10-03T00:56:40.335Z,66.39
2017-10-03T00:59:08.119Z,66.12
2017-10-03T01:01:39.048Z,66.31
2017-10-03T01:04:07.046Z,66.50
2017-10-03T01:06:35.536Z,66.63
2017-10-03T01:09:03.130Z,66.76
2017-10-03T01:11:30.665Z,67.06
2017-10-03T01:14:01.317Z,66.75
2017-10-03T01:16:28.929Z,66.85
2017-10-03T01:18:57.550Z,66.60
2017-10-03T01:21:26.145Z,66.14
2017-10-03T01:23:54.180Z,66.21
2017-10-03T01:26:22.164Z,66.47
2017-10-03T01:28:50.350Z,66.42
2017-10-03T01:31:19.643Z,65.97
2017-10-03T01:33:49.323Z,65.86
2017-10-03T01:36:19.161Z,66.12
2017-10-03T01:38:47.245Z,66.26
2017-10-03T01:41:19.465Z,66.38
2017-10-03T01:43:48.850Z,66.77
2017-10-03T01:46:17.227Z,66.81
2017-10-03T01:48:46.795Z,66.41
2017-10-03T01:51:14.412Z,66.27
2017-10-03T01:53:44.807Z,66.69
2017-10-03T01:56:12.424Z,66.42
2017-10-03T01:58:40.181Z,66.08
2017-10-03T02:01:11.679Z,66.53
2017-10-03T02:03:40.760Z,66.96
2017-10-03T02:06:08.878Z,66.84
2017-10-03T02:08:37.151Z,67.81
2017-10-03T02:11:05.481Z,67.55
2017-10-03T02:13:33.121Z,67.68
2017-10-03T02:16:00.798Z,67.68
2017-10-03T02:18:28.338Z,67.71
2017-10-03T02:20:56.781Z,67.76
2017-10-03T02:23:24.403Z,67.97
2017-10-03T02:25:53.901Z,67.88
2017-10-03T02:28:27.193Z,67.96
2017-10-03T02:30:55.752Z,68.02
2017-10-03T02:33:24.227Z,67.87
2017-10-03T02:35:51.883Z,67.57
2017-10-03T02:38:19.646Z,67.32
2017-10-03T02:40:47.779Z,66.95
2017-10-03T02:43:16.174Z,67.16
2017-10-03T02:45:43.764Z,67.18
2017-10-03T02:48:11.585Z,67.90
2017-10-03T02:50:39.479Z,68.30
2017-10-03T02:53:07.702Z,68.44
2017-10-03T02:55:35.286Z,68.69
2017-10-03T02:58:03.060Z,68.58
2017-10-03T03:00:30.658Z,68.57
2017-10-03T03:02:59.762Z,68.50
2017-10-03T03:05:35.311Z,68.38
2017-10-03T03:10:47.751Z,67.77
2017-10-03T03:13:15.556Z,67.96
2017-10-03T03:15:43.348Z,67.70
2017-10-03T03:18:10.997Z,67.66
2017-10-03T03:20:38.570Z,67.66
2017-10-03T03:23:06.211Z,67.36
2017-10-03T03:25:33.814Z,67.04
2017-10-03T03:28:03.183Z,66.95
2017-10-03T03:30:30.833Z,66.24
2017-10-03T03:32:58.430Z,66.59
2017-10-03T03:35:26.001Z,67.62
2017-10-03T03:37:53.602Z,67.22
2017-10-03T03:40:21.368Z,66.67
2017-10-03T03:42:49.137Z,67.55
2017-10-03T03:45:16.727Z,67.87
2017-10-03T03:47:44.420Z,67.97
2017-10-03T03:50:11.983Z,68.28
2017-10-03T03:52:40.415Z,68.16
2017-10-03T03:55:08.157Z,68.47
2017-10-03T03:57:35.788Z,68.67
2017-10-03T04:00:06.561Z,68.86
2017-10-03T04:02:34.882Z,68.79
2017-10-03T04:05:02.536Z,68.28
2017-10-03T04:07:30.102Z,67.66
2017-10-03T04:09:57.728Z,67.39
2017-10-03T04:12:26.120Z,83.25
2017-10-03T04:14:54.597Z,74.96
2017-10-03T04:17:23.194Z,61.82
2017-10-03T04:19:51.777Z,68.35
2017-10-03T04:22:19.326Z,64.47
2017-10-03T04:24:49.827Z,62.51
2017-10-03T04:27:17.428Z,64.50
2017-10-03T04:29:45.062Z,65.01
2017-10-03T04:32:12.706Z,65.27
2017-10-03T04:34:40.344Z,66.19
2017-10-03T04:37:07.933Z,66.24
2017-10-03T04:39:35.550Z,66.08
2017-10-03T04:42:03.185Z,65.39
2017-10-03T04:44:31.633Z,64.63
2017-10-03T04:46:59.261Z,64.92
2017-10-03T04:49:26.974Z,64.45
2017-10-03T04:51:54.667Z,63.95
2017-10-03T04:54:22.341Z,64.86
2017-10-03T04:56:50.835Z,64.41
2017-10-03T04:59:18.627Z,63.09
2017-10-03T05:01:46.237Z,62.43
2017-10-03T05:04:14.389Z,61.62
2017-10-03T05:06:42.004Z,61.27
2017-10-03T05:09:09.642Z,60.48
2017-10-03T05:11:37.406Z,59.22
2017-10-03T05:14:05.199Z,57.98
2017-10-03T05:16:32.786Z,56.94
2017-10-03T05:19:00.921Z,57.29
2017-10-03T05:21:29.526Z,56.25
2017-10-03T05:23:57.176Z,55.33
2017-10-03T05:26:24.740Z,54.49
2017-10-03T05:28:52.941Z,53.80
2017-10-03T05:31:20.621Z,53.66
2017-10-03T05:33:48.197Z,52.75
2017-10-03T05:36:16.686Z,51.43
2017-10-03T05:38:44.370Z,50.49
2017-10-03T05:41:11.998Z,50.33
2017-10-03T05:43:39.699Z,49.89
2017-10-03T05:46:07.380Z,49.23
2017-10-03T05:48:35.043Z,48.70
2017-10-03T05:51:02.635Z,46.91
2017-10-03T05:53:31.212Z,47.13
2017-10-03T05:55:58.817Z,46.41
2017-10-03T05:58:26.672Z,45.14
2017-10-03T06:00:54.329Z,44.48
2017-10-03T06:03:21.954Z,43.83
2017-10-03T06:05:49.567Z,43.59
2017-10-03T06:08:17.267Z,43.64
2017-10-03T06:10:44.922Z,42.97
2017-10-03T06:13:12.569Z,42.63
2017-10-03T06:15:40.267Z,43.21
2017-10-03T06:18:07.862Z,41.57
2017-10-03T06:20:35.489Z,42.70
2017-10-03T06:23:03.145Z,42.56
2017-10-03T06:25:30.800Z,41.29
2017-10-03T06:27:58.478Z,41.13
2017-10-03T06:30:26.199Z,40.26
2017-10-03T06:32:53.829Z,40.96
2017-10-03T06:35:22.445Z,40.46
2017-10-03T06:37:51.019Z,39.89
2017-10-03T06:40:18.706Z,39.22
2017-10-03T06:42:48.682Z,39.14
2017-10-03T06:45:16.367Z,38.83
2017-10-03T06:47:44.799Z,39.07
2017-10-03T06:50:12.528Z,39.67
2017-10-03T06:52:41.274Z,38.53
2017-10-03T06:55:08.915Z,38.16
2017-10-03T06:57:36.540Z,36.82
2017-10-03T07:00:07.566Z,37.45
2017-10-03T07:02:35.203Z,36.90
2017-10-03T07:05:02.987Z,35.59
2017-10-03T07:07:30.695Z,34.91
2017-10-03T07:09:58.334Z,35.07
2017-10-03T07:12:26.256Z,36.12
2017-10-03T07:14:53.940Z,34.65
2017-10-03T07:17:21.771Z,34.32
2017-10-03T07:19:50.050Z,35.69
2017-10-03T07:22:17.712Z,34.56
2017-10-03T07:24:45.354Z,34.01
2017-10-03T07:27:13.074Z,34.54
2017-10-03T07:29:41.928Z,33.54
2017-10-03T07:32:10.459Z,33.46
2017-10-03T07:34:38.057Z,35.17
2017-10-03T07:37:05.695Z,32.56
2017-10-03T07:39:33.419Z,34.46
2017-10-03T07:42:01.040Z,34.70
2017-10-03T07:44:28.689Z,34.11
2017-10-03T07:46:56.369Z,34.74
2017-10-03T07:49:23.984Z,34.14
2017-10-03T07:51:51.643Z,35.33
2017-10-03T07:54:19.295Z,34.90
2017-10-03T07:56:47.018Z,35.82
2017-10-03T07:59:14.722Z,35.62
2017-10-03T08:01:42.537Z,34.61
2017-10-03T08:04:10.208Z,36.66
2017-10-03T08:06:37.824Z,36.88
2017-10-03T08:09:05.553Z,36.27
2017-10-03T08:11:33.214Z,34.93
2017-10-03T08:14:00.892Z,34.06
2017-10-03T08:16:28.615Z,37.42
2017-10-03T08:18:56.284Z,36.13
2017-10-03T08:21:24.128Z,36.56
2017-10-03T08:23:51.797Z,35.15
2017-10-03T08:26:19.456Z,36.51
2017-10-03T08:28:47.030Z,36.36
2017-10-03T08:31:14.685Z,35.78
2017-10-03T08:33:42.314Z,35.56
2017-10-03T08:36:09.992Z,34.79
2017-10-03T08:38:37.672Z,34.34
2017-10-03T08:41:05.298Z,34.92
2017-10-03T08:43:33.000Z,34.63
2017-10-03T08:46:00.686Z,35.02
2017-10-03T08:48:28.287Z,35.55
2017-10-03T08:50:55.862Z,35.35
2017-10-03T08:53:23.478Z,33.28
2017-10-03T08:55:51.069Z,34.57
2017-10-03T08:58:18.672Z,34.25
2017-10-03T09:00:46.333Z,32.82
2017-10-03T09:03:14.006Z,32.83
2017-10-03T09:05:41.620Z,33.55
2017-10-03T09:08:09.236Z,32.29
2017-10-03T09:10:36.915Z,31.90
2017-10-03T09:13:04.522Z,29.76
2017-10-03T09:15:32.152Z,29.39
2017-10-03T09:18:00.782Z,30.19
2017-10-03T09:20:28.393Z,30.44
2017-10-03T09:22:56.044Z,30.99
2017-10-03T09:25:24.889Z,31.31
2017-10-03T09:27:52.505Z,32.04
2017-10-03T09:30:20.159Z,31.61
2017-10-03T09:32:47.836Z,30.81
2017-10-03T09:35:15.552Z,30.94
2017-10-03T09:37:43.215Z,29.76
2017-10-03T09:40:11.661Z,30.41
2017-10-03T09:42:40.180Z,30.71
2017-10-03T09:45:08.701Z,31.90
2017-10-03T09:47:37.288Z,34.57
2017-10-03T09:50:05.838Z,33.41
2017-10-03T09:52:33.519Z,34.29
2017-10-03T09:55:01.192Z,33.99
2017-10-03T09:57:28.854Z,32.89
2017-10-03T09:59:57.774Z,32.57
2017-10-03T10:02:25.420Z,32.59
2017-10-03T10:04:53.054Z,33.25
2017-10-03T10:07:20.632Z,33.88
2017-10-03T10:09:48.318Z,32.61
2017-10-03T10:12:15.948Z,31.85
2017-10-03T10:14:43.583Z,30.94
2017-10-03T10:17:11.252Z,31.42
2017-10-03T10:19:38.921Z,30.93
2017-10-03T10:22:06.767Z,30.71
2017-10-03T10:24:34.747Z,30.52
2017-10-03T10:27:02.379Z,30.07
2017-10-03T10:29:30.026Z,30.88
2017-10-03T10:31:57.680Z,30.39
2017-10-03T10:34:25.334Z,30.17
2017-10-03T10:36:52.953Z,29.71
2017-10-03T10:39:21.582Z,31.17
2017-10-03T10:41:49.263Z,31.05
2017-10-03T10:44:16.993Z,31.01
2017-10-03T10:46:45.495Z,30.11
2017-10-03T10:49:13.145Z,30.75
2017-10-03T10:51:40.844Z,29.94
2017-10-03T10:54:08.600Z,30.49
2017-10-03T10:56:36.747Z,29.01
2017-10-03T10:59:04.893Z,29.71
2017-10-03T11:01:33.121Z,29.88
2017-10-03T11:04:01.634Z,31.62
2017-10-03T11:06:30.179Z,33.84
2017-10-03T11:08:57.887Z,33.96
2017-10-03T11:11:25.521Z,33.20
2017-10-03T11:13:54.178Z,32.34
2017-10-03T11:16:21.850Z,32.18
2017-10-03T11:18:49.465Z,33.04
2017-10-03T11:21:17.112Z,33.19
2017-10-03T11:23:56.678Z,32.39
2017-10-03T11:26:24.334Z,32.81
2017-10-03T11:28:52.961Z,33.28
2017-10-03T11:31:20.883Z,34.16
2017-10-03T11:33:48.585Z,34.02
2017-10-03T11:36:16.234Z,33.71
2017-10-03T11:38:43.958Z,32.80
2017-10-03T11:41:12.408Z,32.55
2017-10-03T11:43:40.037Z,32.99
2017-10-03T11:46:08.361Z,32.58
2017-10-03T11:48:35.984Z,32.73
2017-10-03T11:51:03.723Z,32.77
2017-10-03T11:53:31.414Z,32.58
2017-10-03T11:55:59.061Z,32.01
2017-10-03T11:58:26.717Z,31.99
2017-10-03T12:00:55.576Z,32.29
2017-10-03T12:03:23.282Z,31.61
2017-10-03T12:05:50.972Z,31.89
2017-10-03T12:08:18.669Z,31.75
2017-10-03T12:10:46.404Z,31.48
2017-10-03T12:13:14.100Z,30.57
2017-10-03T12:15:41.749Z,30.13
2017-10-03T12:18:09.493Z,30.01
2017-10-03T12:20:37.164Z,28.66
2017-10-03T12:23:04.895Z,29.18
2017-10-03T12:25:32.568Z,29.55
2017-10-03T12:28:00.701Z,29.33
2017-10-03T12:30:30.397Z,29.28
2017-10-03T12:32:59.962Z,28.55
2017-10-03T12:35:27.598Z,28.00
2017-10-03T12:37:55.462Z,27.42
2017-10-03T12:40:23.130Z,27.81
2017-10-03T12:42:50.768Z,28.57
2017-10-03T12:45:18.404Z,29.20
2017-10-03T12:47:46.025Z,29.78
2017-10-03T12:50:13.658Z,30.01
2017-10-03T12:52:41.392Z,29.92
2017-10-03T12:55:09.030Z,30.33
2017-10-03T12:57:36.642Z,30.29
2017-10-03T13:00:08.227Z,30.18
2017-10-03T13:02:35.882Z,29.43
2017-10-03T13:05:03.561Z,29.89
2017-10-03T13:07:31.179Z,30.15
2017-10-03T13:09:58.783Z,30.03
2017-10-03T13:12:26.453Z,30.40
2017-10-03T13:14:54.081Z,31.04
2017-10-03T13:17:21.761Z,31.29
2017-10-03T13:19:49.423Z,30.95
2017-10-03T13:22:17.018Z,30.87
2017-10-03T13:24:44.958Z,31.04
2017-10-03T13:27:12.602Z,31.33
2017-10-03T13:29:40.261Z,31.22
2017-10-03T13:32:07.890Z,31.17
2017-10-03T13:34:36.523Z,30.73
2017-10-03T13:37:04.252Z,30.93
2017-10-03T13:39:31.924Z,31.19
2017-10-03T13:41:59.541Z,31.07
2017-10-03T13:44:27.208Z,31.02
2017-10-03T13:46:54.869Z,31.38
2017-10-03T13:49:22.496Z,31.83
2017-10-03T13:51:50.187Z,32.35
2017-10-03T13:54:17.850Z,32.96
2017-10-03T13:56:45.466Z,32.45
2017-10-03T13:59:13.127Z,33.09
2017-10-03T14:01:41.555Z,33.50
2017-10-03T14:04:09.223Z,34.04
2017-10-03T14:06:36.796Z,34.56
2017-10-03T14:09:05.946Z,35.02
2017-10-03T14:11:33.959Z,34.51
2017-10-03T14:14:01.584Z,34.65
2017-10-03T14:16:29.240Z,34.42
2017-10-03T14:18:56.842Z,34.49
2017-10-03T14:21:24.469Z,35.15
2017-10-03T14:23:53.057Z,35.62
2017-10-03T14:26:20.689Z,35.47
2017-10-03T14:28:48.267Z,35.60
2017-10-03T14:31:15.951Z,35.62
2017-10-03T14:33:44.110Z,36.28
2017-10-03T14:36:11.634Z,36.68
2017-10-03T14:38:40.828Z,36.80
2017-10-03T14:41:09.216Z,36.25
2017-10-03T14:43:38.691Z,35.79
2017-10-03T14:46:06.480Z,35.86
2017-10-03T14:48:34.111Z,35.27
2017-10-03T14:51:01.704Z,36.37
2017-10-03T14:53:29.351Z,36.52
2017-10-03T14:55:56.976Z,36.79
2017-10-03T14:58:24.648Z,37.52
2017-10-03T15:00:52.684Z,37.97
2017-10-03T15:03:20.370Z,38.16
2017-10-03T15:05:53.601Z,38.77
2017-10-03T15:08:21.280Z,38.33
2017-10-03T15:10:48.845Z,38.66
2017-10-03T15:13:17.238Z,38.12
2017-10-03T15:15:45.850Z,38.36
2017-10-03T15:18:14.668Z,37.65
2017-10-03T15:20:42.328Z,37.57
2017-10-03T15:23:10.249Z,37.35
2017-10-03T15:25:37.885Z,38.23
2017-10-03T15:28:05.550Z,39.01
2017-10-03T15:30:33.643Z,39.02
2017-10-03T15:33:01.586Z,38.84
2017-10-03T15:35:29.620Z,38.82
2017-10-03T15:37:57.242Z,38.85
2017-10-03T15:40:25.419Z,38.72
2017-10-03T15:42:53.743Z,39.02
2017-10-03T15:45:21.586Z,39.14
2017-10-03T15:47:50.104Z,39.79
2017-10-03T15:50:17.766Z,39.80
2017-10-03T15:52:45.458Z,39.87
2017-10-03T15:55:13.077Z,40.55
2017-10-03T15:57:40.660Z,41.25
2017-10-03T16:00:08.383Z,42.13
2017-10-03T16:02:36.090Z,43.12
2017-10-03T16:05:03.703Z,44.28
2017-10-03T16:07:31.386Z,44.69
2017-10-03T16:09:58.929Z,45.65
2017-10-03T16:12:26.905Z,45.63
2017-10-03T16:14:57.050Z,46.20
2017-10-03T16:17:24.807Z,46.68
2017-10-03T16:19:52.482Z,47.29
2017-10-03T16:22:21.556Z,48.04
2017-10-03T16:24:49.367Z,48.09
2017-10-03T16:27:16.995Z,48.51
2017-10-03T16:29:46.537Z,48.72
2017-10-03T16:32:15.030Z,49.01
2017-10-03T16:34:43.647Z,49.25
2017-10-03T16:37:11.422Z,49.02
2017-10-03T16:39:40.057Z,49.62
2017-10-03T16:42:07.838Z,49.62
2017-10-03T16:44:35.994Z,49.92
2017-10-03T16:47:03.640Z,50.28
2017-10-03T16:49:31.501Z,50.64
2017-10-03T16:51:59.879Z,50.71
2017-10-03T16:54:28.961Z,50.80
2017-10-03T16:56:56.517Z,51.11
2017-10-03T16:59:24.707Z,51.31
2017-10-03T17:01:52.588Z,52.08
2017-10-03T17:04:20.378Z,53.35
2017-10-03T17:06:48.835Z,53.87
2017-10-03T17:09:16.728Z,54.66
2017-10-03T17:11:45.423Z,55.75
2017-10-03T17:14:13.039Z,56.11
2017-10-03T17:16:40.658Z,56.45
2017-10-03T17:19:08.459Z,56.92
2017-10-03T17:21:36.708Z,56.84
2017-10-03T17:24:04.296Z,56.77
2017-10-03T17:26:32.066Z,57.23
2017-10-03T17:28:59.588Z,57.66
2017-10-03T17:31:27.152Z,57.74
2017-10-03T17:33:55.175Z,57.84
2017-10-03T17:36:22.958Z,58.05
2017-10-03T17:38:50.558Z,57.93
2017-10-03T17:41:18.137Z,57.89
2017-10-03T17:43:45.771Z,58.14
2017-10-03T17:46:14.485Z,57.81
2017-10-03T17:48:42.045Z,58.36
2017-10-03T17:51:11.695Z,58.50
2017-10-03T17:53:39.445Z,58.40
2017-10-03T17:56:07.091Z,58.67
2017-10-03T17:58:34.919Z,59.01
2017-10-03T18:01:02.708Z,59.22
2017-10-03T18:03:30.474Z,59.34
2017-10-03T18:05:58.394Z,59.10
2017-10-03T18:08:26.073Z,59.32
2017-10-03T18:10:53.751Z,59.44
2017-10-03T18:13:21.501Z,59.44
2017-10-03T18:15:49.685Z,59.53
2017-10-03T18:18:17.242Z,59.33
2017-10-03T18:20:44.990Z,59.48
2017-10-03T18:23:12.611Z,59.52
2017-10-03T18:25:40.173Z,59.68
2017-10-03T18:28:07.784Z,59.59
2017-10-03T18:30:35.435Z,59.53
2017-10-03T18:33:03.221Z,59.74
2017-10-03T18:35:31.957Z,59.46
2017-10-03T18:37:59.606Z,58.87
2017-10-03T18:40:29.811Z,59.69
2017-10-03T18:42:58.179Z,60.42
2017-10-03T18:45:25.989Z,60.34
2017-10-03T18:47:53.589Z,60.51
2017-10-03T18:50:21.347Z,60.49
2017-10-03T18:52:49.151Z,60.36
2017-10-03T18:55:17.037Z,60.63
2017-10-03T18:57:45.144Z,61.16
2017-10-03T19:00:12.804Z,60.78
2017-10-03T19:02:40.333Z,60.83
2017-10-03T19:05:07.843Z,60.90
2017-10-03T19:07:35.403Z,61.28
2017-10-03T19:10:02.954Z,60.96
2017-10-03T19:12:30.849Z,61.28
2017-10-03T19:14:58.443Z,61.23
2017-10-03T19:17:25.953Z,61.28
2017-10-03T19:19:54.548Z,61.36
2017-10-03T19:22:22.122Z,61.63
2017-10-03T19:24:49.648Z,61.46
2017-10-03T19:27:17.161Z,61.28
2017-10-03T19:29:45.404Z,61.20
2017-10-03T19:32:13.032Z,61.28
2017-10-03T19:34:40.618Z,61.49
2017-10-03T19:37:08.157Z,61.51
2017-10-03T19:39:36.461Z,62.06
2017-10-03T19:42:04.222Z,62.10
2017-10-03T19:44:31.770Z,62.37
2017-10-03T19:46:59.349Z,62.32
2017-10-03T19:49:26.906Z,62.24
2017-10-03T19:51:54.453Z,62.45
2017-10-03T19:54:22.026Z,62.76
2017-10-03T19:56:49.632Z,63.81
2017-10-03T19:59:17.137Z,63.45
2017-10-03T20:01:44.743Z,63.72
2017-10-03T20:04:12.308Z,63.89
2017-10-03T20:06:39.839Z,64.10
2017-10-03T20:09:07.417Z,63.93
2017-10-03T20:11:35.821Z,63.79
2017-10-03T20:14:03.359Z,63.64
2017-10-03T20:16:30.956Z,63.40
2017-10-03T20:18:58.586Z,64.18
2017-10-03T20:21:26.165Z,64.13
2017-10-03T20:23:53.766Z,64.20
2017-10-03T20:26:21.782Z,64.21
2017-10-03T20:28:49.419Z,64.11
2017-10-03T20:31:17.018Z,64.12
2017-10-03T20:33:44.533Z,64.23
2017-10-03T20:36:12.647Z,64.94
2017-10-03T20:38:41.279Z,64.56
2017-10-03T20:41:09.047Z,64.36
2017-10-03T20:43:36.574Z,64.57
2017-10-03T20:46:04.185Z,64.73
2017-10-03T20:48:31.722Z,64.70
2017-10-03T20:50:59.254Z,64.60
2017-10-03T20:53:26.812Z,64.52
2017-10-03T20:55:54.346Z,64.75
2017-10-03T20:58:22.494Z,64.82
2017-10-03T21:00:50.052Z,65.04
2017-10-03T21:03:17.667Z,65.33
2017-10-03T21:05:45.196Z,64.69
2017-10-03T21:08:12.770Z,64.55
2017-10-03T21:10:40.302Z,64.76
2017-10-03T21:13:08.077Z,64.60
2017-10-03T21:15:35.639Z,64.01
2017-10-03T21:18:03.153Z,64.37
2017-10-03T21:20:30.692Z,64.12
2017-10-03T21:22:59.413Z,63.82
2017-10-03T21:25:27.377Z,63.66
2017-10-03T21:27:55.134Z,63.66
2017-10-03T21:30:22.698Z,63.33
2017-10-03T21:32:50.224Z,63.23
2017-10-03T21:35:17.749Z,63.33
2017-10-03T21:37:45.363Z,63.95
2017-10-03T21:40:12.891Z,63.43
2017-10-03T21:42:52.603Z,64.22
2017-10-03T21:45:20.125Z,65.09
2017-10-03T21:47:48.235Z,64.50
2017-10-03T21:50:15.804Z,64.15
2017-10-03T21:52:43.321Z,64.19
2017-10-03T21:55:10.917Z,64.24
2017-10-03T21:57:38.473Z,64.37
2017-10-03T22:00:07.189Z,64.76
2017-10-03T22:02:34.706Z,64.04
2017-10-03T22:05:02.437Z,64.52
2017-10-03T22:07:30.045Z,64.17
2017-10-03T22:09:57.569Z,64.46
2017-10-03T22:12:25.116Z,64.39
2017-10-03T22:14:52.695Z,64.60
2017-10-03T22:17:20.227Z,64.75
2017-10-03T22:19:47.762Z,64.79
2017-10-03T22:22:15.330Z,65.16
2017-10-03T22:24:42.855Z,65.63
2017-10-03T22:27:10.383Z,65.95
2017-10-03T22:29:38.070Z,66.45
2017-10-03T22:32:05.614Z,66.40
2017-10-03T22:34:33.699Z,66.43
2017-10-03T22:37:02.092Z,66.86
2017-10-03T22:39:29.641Z,67.14
2017-10-03T22:41:57.243Z,67.58
2017-10-03T22:44:24.785Z,68.28
2017-10-03T22:46:52.781Z,67.99
2017-10-03T22:49:20.319Z,67.92
2017-10-03T22:51:53.479Z,68.42
2017-10-03T22:54:21.002Z,68.67
2017-10-03T22:56:48.818Z,68.40
2017-10-03T22:59:16.623Z,68.24
2017-10-03T23:01:45.023Z,68.42
2017-10-03T23:04:12.560Z,68.37
2017-10-03T23:06:40.090Z,68.66
2017-10-03T23:09:07.856Z,68.25
2017-10-03T23:11:35.388Z,68.19
2017-10-03T23:14:03.285Z,67.80
2017-10-03T23:16:30.849Z,67.75
2017-10-03T23:18:58.619Z,67.95
2017-10-03T23:21:27.094Z,68.47
2017-10-03T23:23:54.673Z,68.20
2017-10-03T23:26:22.202Z,68.10
2017-10-03T23:28:49.726Z,67.70
2017-10-03T23:31:17.334Z,67.49
2017-10-03T23:33:44.861Z,67.46
2017-10-03T23:36:12.398Z,68.04
2017-10-03T23:38:39.960Z,68.10
2017-10-03T23:41:07.505Z,68.21
2017-10-03T23:43:35.073Z,68.36
2017-10-03T23:46:02.636Z,68.15
2017-10-03T23:48:30.394Z,67.97
2017-10-03T23:50:58.201Z,67.72
2017-10-03T23:53:25.761Z,67.88
2017-10-03T23:55:53.268Z,68.43
2017-10-03T23:58:20.818Z,68.13
